Dudignac, Argentina
Current Conditions -  °F | °C
As of 10:00 PM on Friday 31 Oct 2014 (Local Time) from SAEZ Reporting Station
Broken Clouds Broken Clouds  
Wind Chill: 57°   Ceiling: 8000
Heat Index: 57°   Visibility: 6mi
Dew Point: 46°   Wind: 14mph
Humidity: 67%   Direction: 160°SSE
Pressure: 30.12"   Gusts: NA
Location:  35.66°S, 60.72°W
Report Text: SAEZ 010100Z 16012KT 9999 FEW025 BKN080 14/08 Q1020
Loading
Personal Weather Stations






























Interactive Weather Map New forecast layout! Learn more

10-Day Weather Forecast

Advertisements
Track Severe Weather on mobile